Time,TemperatureF,DewpointF,PressureIn,WindDirection,WindDirectionDegrees,WindSpeedMPH,WindSpeedGustMPH,Humidity,HourlyPrecipIn,Conditions,Clouds,dailyrainin,SoftwareType,DateUTC
2013-08-13 00:06:00,75.5,73.0,29.90,North,4,0.0,0.0,93,0.00,,,0.00,weatherlink.com 1.10,2013-08-13 04:06:00,
2013-08-13 00:21:00,75.8,73.0,29.89,North,4,0.0,0.0,92,0.00,,,0.00,weatherlink.com 1.10,2013-08-13 04:21:00,
2013-08-13 00:36:00,75.8,73.0,29.88,North,4,0.0,0.0,92,0.00,,,0.00,weatherlink.com 1.10,2013-08-13 04:36:00,
2013-08-13 00:51:00,76.4,74.0,29.88,NNW,328,0.0,1.0,92,0.00,,,0.00,weatherlink.com 1.10,2013-08-13 04:51:00,
2013-08-13 01:06:00,76.7,74.0,29.88,WNW,288,0.0,1.0,91,0.00,,,0.00,weatherlink.com 1.10,2013-08-13 05:06:00,
2013-08-13 01:21:00,76.4,74.0,29.87,WSW,243,3.0,4.0,91,0.00,,,0.00,weatherlink.com 1.10,2013-08-13 05:21:00,
2013-08-13 01:36:00,77.1,73.0,29.87,West,259,0.0,2.0,88,0.00,,,0.00,weatherlink.com 1.10,2013-08-13 05:36:00,
2013-08-13 01:51:00,77.3,73.0,29.87,NW,312,0.0,1.0,87,0.00,,,0.00,weatherlink.com 1.10,2013-08-13 05:51:00,
2013-08-13 02:06:00,77.8,72.0,29.86,SE,129,1.0,4.0,82,0.00,,,0.00,weatherlink.com 1.10,2013-08-13 06:06:00,
2013-08-13 02:21:00,78.0,73.0,29.85,ESE,111,0.0,3.0,84,0.00,,,0.00,weatherlink.com 1.10,2013-08-13 06:21:00,
2013-08-13 02:36:00,77.8,73.0,29.85,West,274,0.0,3.0,84,0.00,,,0.00,weatherlink.com 1.10,2013-08-13 06:36:00,
2013-08-13 02:51:00,77.7,73.0,29.84,West,272,0.0,4.0,84,0.00,,,0.00,weatherlink.com 1.10,2013-08-13 06:51:00,
2013-08-13 03:06:00,77.4,73.0,29.83,ESE,123,0.0,3.0,86,0.00,,,0.00,weatherlink.com 1.10,2013-08-13 07:06:00,
2013-08-13 03:21:00,77.4,73.0,29.83,West,278,0.0,1.0,86,0.00,,,0.00,weatherlink.com 1.10,2013-08-13 07:21:00,
2013-08-13 03:36:00,77.3,73.0,29.83,West,270,0.0,2.0,86,0.00,,,0.00,weatherlink.com 1.10,2013-08-13 07:36:00,
2013-08-13 03:51:00,77.2,73.0,29.82,WNW,290,0.0,2.0,87,0.00,,,0.00,weatherlink.com 1.10,2013-08-13 07:51:00,
2013-08-13 04:06:00,77.1,73.0,29.82,WSW,254,0.0,2.0,87,0.00,,,0.00,weatherlink.com 1.10,2013-08-13 08:06:00,
2013-08-13 04:22:00,77.2,74.0,29.81,West,271,1.0,1.0,88,0.00,,,0.00,weatherlink.com 1.10,2013-08-13 08:22:00,
2013-08-13 04:37:00,77.2,74.0,29.80,WNW,283,0.0,3.0,88,0.00,,,0.00,weatherlink.com 1.10,2013-08-13 08:37:00,
2013-08-13 04:52:00,77.2,74.0,29.80,WSW,252,0.0,2.0,88,0.00,,,0.00,weatherlink.com 1.10,2013-08-13 08:52:00,
2013-08-13 05:07:00,77.1,74.0,29.79,NE,46,0.0,1.0,89,0.00,,,0.00,weatherlink.com 1.10,2013-08-13 09:07:00,
2013-08-13 05:22:00,76.8,74.0,29.78,East,101,0.0,3.0,90,0.00,,,0.00,weatherlink.com 1.10,2013-08-13 09:22:00,
2013-08-13 05:37:00,76.8,74.0,29.77,WSW,239,2.0,5.0,91,0.00,,,0.00,weatherlink.com 1.10,2013-08-13 09:37:00,
2013-08-13 05:52:00,76.7,74.0,29.77,SW,236,1.0,3.0,92,0.00,,,0.00,weatherlink.com 1.10,2013-08-13 09:52:00,
2013-08-13 06:07:00,76.6,74.0,29.77,South,186,0.0,7.0,92,0.00,,,0.00,weatherlink.com 1.10,2013-08-13 10:07:00,
2013-08-13 06:22:00,76.5,74.0,29.77,WSW,239,1.0,4.0,93,0.00,,,0.00,weatherlink.com 1.10,2013-08-13 10:22:00,
2013-08-13 06:37:00,76.4,74.0,29.77,WSW,239,2.0,4.0,93,0.00,,,0.00,weatherlink.com 1.10,2013-08-13 10:37:00,
2013-08-13 06:53:00,76.3,75.0,29.77,SW,235,1.0,4.0,94,0.00,,,0.00,weatherlink.com 1.10,2013-08-13 10:53:00,
2013-08-13 07:07:00,76.5,75.0,29.77,WSW,248,0.0,5.0,94,0.00,,,0.00,weatherlink.com 1.10,2013-08-13 11:07:00,
2013-08-13 07:22:00,76.6,75.0,29.77,WSW,243,3.0,5.0,93,0.00,,,0.00,weatherlink.com 1.10,2013-08-13 11:22:00,
2013-08-13 07:37:00,76.6,75.0,29.76,WSW,242,1.0,7.0,93,0.00,,,0.00,weatherlink.com 1.10,2013-08-13 11:37:00,
2013-08-13 07:52:00,76.8,75.0,29.75,SW,233,1.0,3.0,93,0.00,,,0.00,weatherlink.com 1.10,2013-08-13 11:52:00,
2013-08-13 08:07:00,77.1,75.0,29.75,West,265,1.0,4.0,92,0.00,,,0.00,weatherlink.com 1.10,2013-08-13 12:07:00,
2013-08-13 08:22:00,77.3,75.0,29.76,SW,236,0.0,6.0,91,0.00,,,0.00,weatherlink.com 1.10,2013-08-13 12:22:00,
2013-08-13 08:37:00,77.7,75.0,29.76,West,266,5.0,5.0,90,0.00,,,0.00,weatherlink.com 1.10,2013-08-13 12:37:00,
2013-08-13 08:53:00,78.3,75.0,29.77,SW,225,0.0,4.0,88,0.00,,,0.00,weatherlink.com 1.10,2013-08-13 12:53:00,
2013-08-13 09:07:00,79.3,75.0,29.77,WSW,252,4.0,7.0,86,0.00,,,0.00,weatherlink.com 1.10,2013-08-13 13:07:00,
2013-08-13 09:22:00,80.4,76.0,29.77,ENE,58,5.0,5.0,85,0.00,,,0.00,weatherlink.com 1.10,2013-08-13 13:22:00,
2013-08-13 09:37:00,80.3,75.0,29.76,SSW,205,0.0,5.0,83,0.00,,,0.00,weatherlink.com 1.10,2013-08-13 13:37:00,
2013-08-13 09:52:00,80.4,75.0,29.75,SW,231,0.0,6.0,83,0.00,,,0.00,weatherlink.com 1.10,2013-08-13 13:52:00,
2013-08-13 10:07:00,80.5,75.0,29.75,West,264,1.0,5.0,83,0.00,,,0.00,weatherlink.com 1.10,2013-08-13 14:07:00,
2013-08-13 10:22:00,80.1,75.0,29.75,NNE,31,5.0,5.0,84,0.00,,,0.00,weatherlink.com 1.10,2013-08-13 14:22:00,
2013-08-13 10:37:00,79.5,74.0,29.77,West,276,1.0,3.0,84,0.00,,,0.00,weatherlink.com 1.10,2013-08-13 14:37:00,
2013-08-13 10:52:00,79.0,74.0,29.77,WSW,250,4.0,5.0,85,0.00,,,0.00,weatherlink.com 1.10,2013-08-13 14:52:00,
2013-08-13 11:07:00,79.0,74.0,29.77,ESE,117,1.0,11.0,85,0.00,,,0.00,weatherlink.com 1.10,2013-08-13 15:07:00,
2013-08-13 11:22:00,79.5,74.0,29.77,West,272,1.0,5.0,83,0.00,,,0.00,weatherlink.com 1.10,2013-08-13 15:22:00,
2013-08-13 11:37:00,79.0,72.0,29.78,WNW,284,0.0,6.0,80,0.00,,,0.00,weatherlink.com 1.10,2013-08-13 15:37:00,
2013-08-13 11:52:00,79.0,72.0,29.78,West,281,1.0,4.0,79,0.00,,,0.00,weatherlink.com 1.10,2013-08-13 15:52:00,
2013-08-13 12:07:00,78.7,71.0,29.77,West,281,1.0,6.0,77,0.00,,,0.00,weatherlink.com 1.10,2013-08-13 16:07:00,
2013-08-13 12:22:00,79.5,71.0,29.77,WNW,287,1.0,3.0,76,0.00,,,0.00,weatherlink.com 1.10,2013-08-13 16:22:00,
2013-08-13 12:37:00,79.0,71.0,29.78,SW,214,0.0,4.0,77,0.00,,,0.00,weatherlink.com 1.10,2013-08-13 16:37:00,
2013-08-13 12:52:00,79.2,71.0,29.78,West,267,0.0,3.0,77,0.00,,,0.00,weatherlink.com 1.10,2013-08-13 16:52:00,
2013-08-13 13:07:00,79.6,72.0,29.77,WNW,291,0.0,3.0,77,0.00,,,0.00,weatherlink.com 1.10,2013-08-13 17:07:00,
2013-08-13 13:22:00,80.0,71.0,29.77,WNW,291,0.0,4.0,74,0.00,,,0.00,weatherlink.com 1.10,2013-08-13 17:22:00,
2013-08-13 13:37:00,79.8,71.0,29.77,NNE,23,0.0,3.0,74,0.00,,,0.00,weatherlink.com 1.10,2013-08-13 17:37:00,
2013-08-13 13:52:00,80.3,70.0,29.76,West,274,2.0,4.0,71,0.00,,,0.00,weatherlink.com 1.10,2013-08-13 17:52:00,
2013-08-13 14:07:00,81.9,71.0,29.76,West,281,1.0,3.0,69,0.00,,,0.00,weatherlink.com 1.10,2013-08-13 18:07:00,
2013-08-13 14:22:00,82.3,72.0,29.76,NE,44,0.0,5.0,70,0.00,,,0.00,weatherlink.com 1.10,2013-08-13 18:22:00,
2013-08-13 14:38:00,83.2,71.0,29.75,WNW,287,1.0,5.0,66,0.00,,,0.00,weatherlink.com 1.10,2013-08-13 18:38:00,
2013-08-13 14:53:00,83.5,71.0,29.75,WNW,287,1.0,5.0,66,0.00,,,0.00,weatherlink.com 1.10,2013-08-13 18:53:00,
2013-08-13 15:08:00,84.0,71.0,29.75,West,281,1.0,4.0,66,0.00,,,0.00,weatherlink.com 1.10,2013-08-13 19:08:00,
2013-08-13 15:23:00,84.5,70.0,29.74,West,263,1.0,4.0,63,0.00,,,0.00,weatherlink.com 1.10,2013-08-13 19:23:00,
2013-08-13 15:38:00,85.1,72.0,29.74,WSW,246,4.0,4.0,64,0.00,,,0.00,weatherlink.com 1.10,2013-08-13 19:38:00,
2013-08-13 15:53:00,85.2,71.0,29.74,WNW,288,2.0,5.0,63,0.00,,,0.00,weatherlink.com 1.10,2013-08-13 19:53:00,
2013-08-13 16:08:00,85.2,72.0,29.74,WNW,291,2.0,3.0,64,0.00,,,0.00,weatherlink.com 1.10,2013-08-13 20:08:00,
2013-08-13 16:23:00,84.8,72.0,29.74,WNW,285,0.0,3.0,65,0.00,,,0.00,weatherlink.com 1.10,2013-08-13 20:23:00,
2013-08-13 16:38:00,84.5,71.0,29.74,West,274,0.0,2.0,65,0.00,,,0.00,weatherlink.com 1.10,2013-08-13 20:38:00,
2013-08-13 16:53:00,84.7,71.0,29.73,West,262,0.0,3.0,64,0.00,,,0.00,weatherlink.com 1.10,2013-08-13 20:53:00,
2013-08-13 17:08:00,85.3,72.0,29.73,ESE,120,1.0,1.0,65,0.00,,,0.00,weatherlink.com 1.10,2013-08-13 21:08:00,
2013-08-13 17:23:00,82.8,73.0,29.73,ESE,104,4.0,6.0,71,0.00,,,0.00,weatherlink.com 1.10,2013-08-13 21:23:00,
2013-08-13 17:38:00,81.7,72.0,29.73,East,90,3.0,4.0,72,0.00,,,0.00,weatherlink.com 1.10,2013-08-13 21:38:00,
2013-08-13 17:53:00,81.2,72.0,29.73,East,96,3.0,5.0,74,0.00,,,0.00,weatherlink.com 1.10,2013-08-13 21:53:00,
2013-08-13 18:08:00,81.3,72.0,29.73,East,94,3.0,5.0,74,0.00,,,0.00,weatherlink.com 1.10,2013-08-13 22:08:00,
2013-08-13 18:23:00,81.1,73.0,29.73,East,101,3.0,5.0,77,0.00,,,0.00,weatherlink.com 1.10,2013-08-13 22:23:00,
2013-08-13 18:38:00,80.8,73.0,29.73,ESE,105,2.0,5.0,78,0.00,,,0.00,weatherlink.com 1.10,2013-08-13 22:38:00,
2013-08-13 18:53:00,80.3,73.0,29.73,East,101,2.0,5.0,79,0.00,,,0.00,weatherlink.com 1.10,2013-08-13 22:53:00,
2013-08-13 19:08:00,80.1,72.0,29.73,ENE,70,2.0,4.0,76,0.00,,,0.00,weatherlink.com 1.10,2013-08-13 23:08:00,
2013-08-13 19:23:00,80.0,72.0,29.73,East,91,2.0,4.0,77,0.00,,,0.00,weatherlink.com 1.10,2013-08-13 23:23:00,
2013-08-13 19:38:00,80.1,72.0,29.73,East,100,3.0,5.0,77,0.00,,,0.00,weatherlink.com 1.10,2013-08-13 23:38:00,
2013-08-13 19:53:00,80.0,72.0,29.74,East,82,1.0,4.0,77,0.00,,,0.00,weatherlink.com 1.10,2013-08-13 23:53:00,
2013-08-13 20:08:00,79.8,72.0,29.74,East,86,1.0,3.0,77,0.00,,,0.00,weatherlink.com 1.10,2013-08-14 00:08:00,
2013-08-13 20:23:00,79.5,72.0,29.73,SW,224,0.0,4.0,78,0.00,,,0.00,weatherlink.com 1.10,2013-08-14 00:23:00,
2013-08-13 20:38:00,79.0,72.0,29.73,East,95,0.0,3.0,79,0.00,,,0.00,weatherlink.com 1.10,2013-08-14 00:38:00,
2013-08-13 20:53:00,78.8,73.0,29.74,WSW,253,0.0,3.0,81,0.00,,,0.00,weatherlink.com 1.10,2013-08-14 00:53:00,
2013-08-13 21:08:00,78.8,73.0,29.74,WSW,256,0.0,2.0,82,0.00,,,0.00,weatherlink.com 1.10,2013-08-14 01:08:00,
2013-08-13 21:23:00,78.7,73.0,29.74,WSW,255,1.0,3.0,82,0.00,,,0.00,weatherlink.com 1.10,2013-08-14 01:23:00,
2013-08-13 21:38:00,74.9,71.0,29.78,West,276,3.0,9.0,86,0.21,,,0.21,weatherlink.com 1.10,2013-08-14 01:38:00,
2013-08-13 21:53:00,70.9,69.0,29.78,NNW,346,0.0,3.0,93,0.37,,,0.37,weatherlink.com 1.10,2013-08-14 01:53:00,
2013-08-13 22:08:00,70.3,69.0,29.77,SW,236,0.0,2.0,95,0.42,,,0.42,weatherlink.com 1.10,2013-08-14 02:08:00,
2013-08-13 22:23:00,70.3,69.0,29.77,WNW,284,0.0,1.0,95,0.43,,,0.43,weatherlink.com 1.10,2013-08-14 02:23:00,
2013-08-13 22:38:00,70.4,69.0,29.77,WSW,255,0.0,1.0,96,0.15,,,0.43,weatherlink.com 1.10,2013-08-14 02:38:00,
2013-08-13 22:53:00,70.3,69.0,29.78,West,260,0.0,0.0,96,0.05,,,0.43,weatherlink.com 1.10,2013-08-14 02:53:00,
2013-08-13 23:08:00,70.2,69.0,29.78,West,267,0.0,0.0,96,0.00,,,0.43,weatherlink.com 1.10,2013-08-14 03:08:00,
2013-08-13 23:23:00,70.2,69.0,29.77,West,267,0.0,0.0,96,0.00,,,0.43,weatherlink.com 1.10,2013-08-14 03:23:00,
2013-08-13 23:38:00,70.3,69.0,29.78,East,79,0.0,1.0,96,0.00,,,0.43,weatherlink.com 1.10,2013-08-14 03:38:00,
2013-08-13 23:54:00,70.2,69.0,29.77,West,271,0.0,0.0,96,0.00,,,0.43,weatherlink.com 1.10,2013-08-14 03:54:00,